createdAt,value
2019-03-20T00:00:05.329Z,17.12
2019-03-20T00:00:58.776Z,16.23
2019-03-20T00:01:48.769Z,19.85
2019-03-20T00:02:38.487Z,16.35
2019-03-20T00:03:28.485Z,14.68
2019-03-20T00:04:17.606Z,16.48
2019-03-20T00:05:07.571Z,16.57
2019-03-20T00:05:57.573Z,17.10
2019-03-20T00:06:47.635Z,10.63
2019-03-20T00:07:37.435Z,13.98
2019-03-20T00:08:30.029Z,12.13
2019-03-20T00:09:19.757Z,14.83
2019-03-20T00:10:09.571Z,13.18
2019-03-20T00:10:58.960Z,15.32
2019-03-20T00:11:48.808Z,13.25
2019-03-20T00:12:38.483Z,14.00
2019-03-20T00:13:28.635Z,14.53
2019-03-20T00:14:18.921Z,16.65
2019-03-20T00:15:09.130Z,13.95
2019-03-20T00:15:58.484Z,17.00
2019-03-20T00:16:48.701Z,13.62
2019-03-20T00:17:38.521Z,13.60
2019-03-20T00:18:28.857Z,15.48
2019-03-20T00:19:18.363Z,16.23
2019-03-20T00:20:08.667Z,16.07
2019-03-20T00:20:58.447Z,11.70
2019-03-20T00:21:48.430Z,15.20
2019-03-20T00:22:38.274Z,13.40
2019-03-20T00:23:27.756Z,13.90
2019-03-20T00:24:17.392Z,11.12
2019-03-20T00:25:06.895Z,14.40
2019-03-20T00:25:58.085Z,10.80
2019-03-20T00:26:48.393Z,13.40
2019-03-20T00:27:38.919Z,12.45
2019-03-20T00:28:28.237Z,11.80
2019-03-20T00:29:17.924Z,12.37
2019-03-20T00:30:07.925Z,14.40
2019-03-20T00:30:58.394Z,11.93
2019-03-20T00:31:47.683Z,14.60
2019-03-20T00:32:37.289Z,15.25
2019-03-20T00:33:27.313Z,12.98
2019-03-20T00:34:17.451Z,13.58
2019-03-20T00:35:06.842Z,16.80
2019-03-20T00:35:56.317Z,14.93
2019-03-20T00:36:46.002Z,13.65
2019-03-20T00:37:35.587Z,14.07
2019-03-20T00:38:25.524Z,21.07
2019-03-20T00:39:15.442Z,13.65
2019-03-20T00:40:05.258Z,14.87
2019-03-20T00:40:54.658Z,15.75
2019-03-20T00:41:44.176Z,10.88
2019-03-20T00:42:35.488Z,14.70
2019-03-20T00:43:23.331Z,11.50
2019-03-20T00:44:13.592Z,15.58
2019-03-20T00:45:02.899Z,14.38
2019-03-20T00:45:52.389Z,12.03
2019-03-20T00:46:41.891Z,11.85
2019-03-20T00:47:31.784Z,15.23
2019-03-20T00:48:21.265Z,11.95
2019-03-20T00:49:11.014Z,17.85
2019-03-20T00:50:00.674Z,15.10
2019-03-20T00:50:51.212Z,10.88
2019-03-20T00:51:42.300Z,13.48
2019-03-20T00:52:32.002Z,14.35
2019-03-20T00:53:22.057Z,12.63
2019-03-20T00:54:12.205Z,14.95
2019-03-20T00:55:02.287Z,12.07
2019-03-20T00:55:52.628Z,14.93
2019-03-20T00:56:42.055Z,14.53
2019-03-20T00:57:31.780Z,14.35
2019-03-20T00:58:21.332Z,12.50
2019-03-20T00:59:11.459Z,11.75
2019-03-20T01:00:01.487Z,14.75
2019-03-20T01:00:52.152Z,14.30
2019-03-20T01:01:41.709Z,11.68
2019-03-20T01:02:31.292Z,11.40
2019-03-20T01:03:21.488Z,14.07
2019-03-20T01:04:11.732Z,17.73
2019-03-20T01:05:12.122Z,13.55
2019-03-20T01:05:51.346Z,13.32
2019-03-20T01:06:40.772Z,16.17
2019-03-20T01:07:30.774Z,12.65
2019-03-20T01:08:20.550Z,13.93
2019-03-20T01:09:10.984Z,14.25
2019-03-20T01:10:00.513Z,13.50
2019-03-20T01:10:49.994Z,13.70
2019-03-20T01:11:40.041Z,14.75
2019-03-20T01:12:29.313Z,16.23
2019-03-20T01:13:20.264Z,12.63
2019-03-20T01:14:09.980Z,12.68
2019-03-20T01:15:00.018Z,17.67
2019-03-20T01:15:49.708Z,18.90
2019-03-20T01:16:39.288Z,13.75
2019-03-20T01:17:28.944Z,14.40
2019-03-20T01:18:18.723Z,13.15
2019-03-20T01:19:08.853Z,15.08
2019-03-20T01:19:58.922Z,16.97
2019-03-20T01:20:48.332Z,13.70
2019-03-20T01:21:38.769Z,23.35
2019-03-20T01:22:28.596Z,13.25
2019-03-20T01:23:18.398Z,15.78
2019-03-20T01:24:08.720Z,17.05
2019-03-20T01:24:58.149Z,17.27
2019-03-20T01:25:47.974Z,15.90
2019-03-20T01:26:38.053Z,18.77
2019-03-20T01:27:28.114Z,16.57
2019-03-20T01:28:18.259Z,21.40
2019-03-20T01:29:07.559Z,13.22
2019-03-20T01:29:57.451Z,15.23
2019-03-20T01:30:47.176Z,17.85
2019-03-20T01:31:36.672Z,12.68
2019-03-20T01:32:26.765Z,17.77
2019-03-20T01:33:16.846Z,12.63
2019-03-20T01:34:06.840Z,16.00
2019-03-20T01:34:56.185Z,16.20
2019-03-20T01:35:46.263Z,15.32
2019-03-20T01:36:36.090Z,15.50
2019-03-20T01:37:26.249Z,13.60
2019-03-20T01:38:15.739Z,17.32
2019-03-20T01:39:05.819Z,20.77
2019-03-20T01:39:55.349Z,16.45
2019-03-20T01:40:45.735Z,19.42
2019-03-20T01:41:38.294Z,15.83
2019-03-20T01:42:25.078Z,16.25
2019-03-20T01:43:14.725Z,15.05
2019-03-20T01:44:04.846Z,12.33
2019-03-20T01:44:55.038Z,15.63
2019-03-20T01:45:45.097Z,18.65
2019-03-20T01:46:34.463Z,16.80
2019-03-20T01:47:24.494Z,17.00
2019-03-20T01:48:14.454Z,14.33
2019-03-20T01:49:04.741Z,12.82
2019-03-20T01:49:54.316Z,16.65
2019-03-20T01:50:43.809Z,14.55
2019-03-20T01:51:33.562Z,15.83
2019-03-20T01:52:23.419Z,14.38
2019-03-20T01:53:13.665Z,15.08
2019-03-20T01:54:03.884Z,13.18
2019-03-20T01:54:53.512Z,12.53
2019-03-20T01:55:43.178Z,11.60
2019-03-20T01:56:33.075Z,14.78
2019-03-20T01:57:23.655Z,12.68
2019-03-20T01:58:13.310Z,11.95
2019-03-20T01:59:03.108Z,12.63
2019-03-20T01:59:52.335Z,12.73
2019-03-20T02:00:42.095Z,19.98
2019-03-20T02:01:31.857Z,13.95
2019-03-20T02:02:22.437Z,13.45
2019-03-20T02:03:12.859Z,16.52
2019-03-20T02:04:02.993Z,15.80
2019-03-20T02:04:52.535Z,16.40
2019-03-20T02:05:42.322Z,14.55
2019-03-20T02:06:31.822Z,15.35
2019-03-20T02:07:21.446Z,11.80
2019-03-20T02:08:10.967Z,12.23
2019-03-20T02:09:00.534Z,12.82
2019-03-20T02:09:50.335Z,14.98
2019-03-20T02:10:40.070Z,12.90
2019-03-20T02:11:29.828Z,15.93
2019-03-20T02:12:19.488Z,12.65
2019-03-20T02:13:09.245Z,12.47
2019-03-20T02:13:59.657Z,12.82
2019-03-20T02:14:49.980Z,18.07
2019-03-20T02:15:39.884Z,14.15
2019-03-20T02:16:29.682Z,15.38
2019-03-20T02:17:19.726Z,12.98
2019-03-20T02:18:09.840Z,15.03
2019-03-20T02:18:59.534Z,12.53
2019-03-20T02:19:49.416Z,13.55
2019-03-20T02:20:39.415Z,13.10
2019-03-20T02:21:29.229Z,10.10
2019-03-20T02:22:19.450Z,17.25
2019-03-20T02:23:09.261Z,14.73
2019-03-20T02:24:00.195Z,11.12
2019-03-20T02:24:53.804Z,13.15
2019-03-20T02:25:44.237Z,16.70
2019-03-20T02:26:37.356Z,12.13
2019-03-20T02:27:26.939Z,11.00
2019-03-20T02:28:16.809Z,11.50
2019-03-20T02:29:06.837Z,11.55
2019-03-20T02:29:56.564Z,11.50
2019-03-20T02:30:47.574Z,11.43
2019-03-20T02:31:37.337Z,17.17
2019-03-20T02:32:46.512Z,13.65
2019-03-20T02:33:38.203Z,10.58
2019-03-20T02:34:27.887Z,10.93
2019-03-20T02:35:18.911Z,13.13
2019-03-20T02:36:08.815Z,12.73
2019-03-20T02:37:17.240Z,12.78
2019-03-20T02:38:08.936Z,10.60
2019-03-20T02:38:58.936Z,13.30
2019-03-20T02:39:48.991Z,12.80
2019-03-20T02:40:38.779Z,13.38
2019-03-20T02:41:28.434Z,15.43
2019-03-20T02:42:18.621Z,11.40
2019-03-20T02:43:08.583Z,11.05
2019-03-20T02:43:58.084Z,12.05
2019-03-20T02:44:47.722Z,15.15
2019-03-20T02:45:37.462Z,13.38
2019-03-20T02:46:27.538Z,10.32
2019-03-20T02:47:17.309Z,10.45
2019-03-20T02:48:09.237Z,13.60
2019-03-20T02:49:00.080Z,17.30
2019-03-20T02:49:49.846Z,15.48
2019-03-20T02:50:39.732Z,14.63
2019-03-20T02:51:28.935Z,11.20
2019-03-20T02:52:18.851Z,12.15
2019-03-20T02:53:08.509Z,11.15
2019-03-20T02:53:58.438Z,18.15
2019-03-20T02:54:51.083Z,12.30
2019-03-20T02:55:40.688Z,9.18
2019-03-20T02:56:30.425Z,11.12
2019-03-20T02:57:20.089Z,9.43
2019-03-20T02:58:09.845Z,13.03
2019-03-20T02:58:59.755Z,13.62
2019-03-20T02:59:49.552Z,11.73
2019-03-20T03:00:39.621Z,14.38
2019-03-20T03:01:29.826Z,12.95
2019-03-20T03:02:19.385Z,8.78
2019-03-20T03:03:09.002Z,9.85
2019-03-20T03:03:58.487Z,11.40
2019-03-20T03:04:49.137Z,14.10
2019-03-20T03:05:39.461Z,11.25
2019-03-20T03:06:29.797Z,13.50
2019-03-20T03:07:19.397Z,9.95
2019-03-20T03:08:08.917Z,14.70
2019-03-20T03:09:22.245Z,13.58
2019-03-20T03:10:12.036Z,7.55
2019-03-20T03:11:03.155Z,11.03
2019-03-20T03:11:54.568Z,8.90
2019-03-20T03:12:46.634Z,7.72
2019-03-20T03:13:36.759Z,13.05
2019-03-20T03:14:31.899Z,10.43
2019-03-20T03:15:21.770Z,9.85
2019-03-20T03:16:13.061Z,8.60
2019-03-20T03:17:03.749Z,10.43
2019-03-20T03:17:55.332Z,10.55
2019-03-20T03:18:46.032Z,14.00
2019-03-20T03:19:37.228Z,7.95
2019-03-20T03:20:27.182Z,10.23
2019-03-20T03:21:20.299Z,9.65
2019-03-20T03:22:09.643Z,13.30
2019-03-20T03:23:01.537Z,11.22
2019-03-20T03:23:53.652Z,10.20
2019-03-20T03:24:44.055Z,9.85
2019-03-20T03:25:35.502Z,6.90
2019-03-20T03:26:26.906Z,11.30
2019-03-20T03:27:16.707Z,15.00
2019-03-20T03:28:06.514Z,10.60
2019-03-20T03:28:56.356Z,12.78
2019-03-20T03:29:47.958Z,14.35
2019-03-20T03:30:38.159Z,7.10
2019-03-20T03:31:28.948Z,15.53
2019-03-20T03:32:19.148Z,12.73
2019-03-20T03:33:08.911Z,11.33
2019-03-20T03:33:59.195Z,9.25
2019-03-20T03:34:48.695Z,13.22
2019-03-20T03:35:39.053Z,6.47
2019-03-20T03:36:28.843Z,7.60
2019-03-20T03:37:18.868Z,10.45
2019-03-20T03:38:08.777Z,10.20
2019-03-20T03:38:59.149Z,11.33
2019-03-20T03:39:49.414Z,12.03
2019-03-20T03:40:38.942Z,17.25
2019-03-20T03:41:28.982Z,11.65
2019-03-20T03:42:18.792Z,8.63
2019-03-20T03:43:08.879Z,13.70
2019-03-20T03:43:58.609Z,13.60
2019-03-20T03:44:48.133Z,8.38
2019-03-20T03:45:37.845Z,7.87
2019-03-20T03:46:27.509Z,11.55
2019-03-20T03:47:17.469Z,9.88
2019-03-20T03:48:07.281Z,11.33
2019-03-20T03:48:56.871Z,9.40
2019-03-20T03:49:46.424Z,11.63
2019-03-20T03:50:36.126Z,10.53
2019-03-20T03:51:26.271Z,13.68
2019-03-20T03:52:15.755Z,10.70
2019-03-20T03:53:05.775Z,14.85
2019-03-20T03:53:55.478Z,12.03
2019-03-20T03:54:44.965Z,12.18
2019-03-20T03:55:34.789Z,11.60
2019-03-20T03:56:25.134Z,9.28
2019-03-20T03:57:15.049Z,12.55
2019-03-20T03:58:05.007Z,12.00
2019-03-20T03:58:54.741Z,10.88
2019-03-20T03:59:45.325Z,12.82
2019-03-20T04:00:35.077Z,14.53
2019-03-20T04:01:25.106Z,11.55
2019-03-20T04:02:15.813Z,8.23
2019-03-20T04:03:05.476Z,10.55
2019-03-20T04:03:56.159Z,11.18
2019-03-20T04:04:45.879Z,10.48
2019-03-20T04:05:36.302Z,10.00
2019-03-20T04:06:35.487Z,10.93
2019-03-20T04:07:16.359Z,10.30
2019-03-20T04:08:06.176Z,9.70
2019-03-20T04:08:55.889Z,10.32
2019-03-20T04:09:45.286Z,12.82
2019-03-20T04:10:34.942Z,9.50
2019-03-20T04:11:24.723Z,10.53
2019-03-20T04:12:15.433Z,15.75
2019-03-20T04:13:05.684Z,12.65
2019-03-20T04:13:55.848Z,10.58
2019-03-20T04:14:45.493Z,16.48
2019-03-20T04:15:36.527Z,12.35
2019-03-20T04:16:25.355Z,13.18
2019-03-20T04:17:27.247Z,17.95
2019-03-20T04:18:16.954Z,9.73
2019-03-20T04:19:06.776Z,11.97
2019-03-20T04:19:56.988Z,9.45
2019-03-20T04:20:46.617Z,11.80
2019-03-20T04:21:36.299Z,13.30
2019-03-20T04:22:25.946Z,14.18
2019-03-20T04:23:16.003Z,12.37
2019-03-20T04:24:06.043Z,11.83
2019-03-20T04:24:55.824Z,10.82
2019-03-20T04:25:45.341Z,12.78
2019-03-20T04:26:34.989Z,12.07
2019-03-20T04:27:24.746Z,21.23
2019-03-20T04:28:14.386Z,13.68
2019-03-20T04:29:04.489Z,17.75
2019-03-20T04:29:54.091Z,18.00
2019-03-20T04:30:43.791Z,16.50
2019-03-20T04:31:33.919Z,39.00
2019-03-20T04:32:23.170Z,53.95
2019-03-20T04:33:12.665Z,56.63
2019-03-20T04:34:02.262Z,63.35
2019-03-20T04:34:51.815Z,73.22
2019-03-20T04:35:41.972Z,47.85
2019-03-20T04:36:31.852Z,48.92
2019-03-20T04:37:22.458Z,49.63
2019-03-20T04:38:11.977Z,52.00
2019-03-20T04:39:01.882Z,44.18
2019-03-20T04:39:51.783Z,46.75
2019-03-20T04:40:41.482Z,45.15
2019-03-20T04:41:31.543Z,51.00
2019-03-20T04:42:21.502Z,41.02
2019-03-20T04:43:11.518Z,37.10
2019-03-20T04:44:01.329Z,31.93
2019-03-20T04:44:51.468Z,41.02
2019-03-20T04:45:40.984Z,36.93
2019-03-20T04:46:30.950Z,29.50
2019-03-20T04:47:21.086Z,31.07
2019-03-20T04:48:10.649Z,29.27
2019-03-20T04:49:00.981Z,29.57
2019-03-20T04:49:50.592Z,31.23
2019-03-20T04:50:40.049Z,47.23
2019-03-20T04:51:29.636Z,45.90
2019-03-20T04:52:19.516Z,33.78
2019-03-20T04:53:09.632Z,31.27
2019-03-20T04:53:59.860Z,20.05
2019-03-20T04:54:49.638Z,20.95
2019-03-20T04:55:39.259Z,25.35
2019-03-20T04:56:29.343Z,23.87
2019-03-20T04:57:19.094Z,21.33
2019-03-20T04:58:08.742Z,19.30
2019-03-20T04:58:58.219Z,23.05
2019-03-20T04:59:49.213Z,39.75
2019-03-20T05:00:38.896Z,33.42
2019-03-20T05:01:29.277Z,34.35
2019-03-20T05:02:18.891Z,35.33
2019-03-20T05:03:08.468Z,29.23
2019-03-20T05:03:57.991Z,27.37
2019-03-20T05:04:47.683Z,27.35
2019-03-20T05:05:37.433Z,28.00
2019-03-20T05:06:27.511Z,19.55
2019-03-20T05:07:17.178Z,22.13
2019-03-20T05:08:06.861Z,21.07
2019-03-20T05:08:56.815Z,18.85
2019-03-20T05:09:46.307Z,21.60
2019-03-20T05:10:36.204Z,17.95
2019-03-20T05:11:25.800Z,23.70
2019-03-20T05:12:15.345Z,22.02
2019-03-20T05:13:04.915Z,20.88
2019-03-20T05:13:54.466Z,23.10
2019-03-20T05:14:44.231Z,17.17
2019-03-20T05:15:34.311Z,23.57
2019-03-20T05:16:24.335Z,23.15
2019-03-20T05:17:14.708Z,22.27
2019-03-20T05:18:04.586Z,15.38
2019-03-20T05:18:54.622Z,12.03
2019-03-20T05:19:44.064Z,17.87
2019-03-20T05:20:34.003Z,16.62
2019-03-20T05:21:23.759Z,21.90
2019-03-20T05:22:13.425Z,23.30
2019-03-20T05:23:03.169Z,20.27
2019-03-20T05:23:54.261Z,22.22
2019-03-20T05:24:43.620Z,22.30
2019-03-20T05:25:33.502Z,21.85
2019-03-20T05:26:23.466Z,21.73
2019-03-20T05:27:13.255Z,22.30
2019-03-20T05:28:03.196Z,24.57
2019-03-20T05:28:52.911Z,18.82
2019-03-20T05:29:42.836Z,19.95
2019-03-20T05:30:32.699Z,23.42
2019-03-20T05:31:24.133Z,19.67
2019-03-20T05:32:13.876Z,22.17
2019-03-20T05:33:03.922Z,22.98
2019-03-20T05:33:53.705Z,23.90
2019-03-20T05:34:45.854Z,26.10
2019-03-20T05:35:36.388Z,19.57
2019-03-20T05:36:25.876Z,20.85
2019-03-20T05:37:15.587Z,19.07
2019-03-20T05:38:05.631Z,18.50
2019-03-20T05:38:55.706Z,24.35
2019-03-20T05:39:46.058Z,18.05
2019-03-20T05:40:36.112Z,16.60
2019-03-20T05:41:25.675Z,18.85
2019-03-20T05:42:15.404Z,18.15
2019-03-20T05:43:05.401Z,16.82
2019-03-20T05:43:55.467Z,13.40
2019-03-20T05:44:45.009Z,14.70
2019-03-20T05:45:34.509Z,15.53
2019-03-20T05:46:24.561Z,17.27
2019-03-20T05:47:14.552Z,13.72
2019-03-20T05:48:04.362Z,13.83
2019-03-20T05:48:55.077Z,12.33
2019-03-20T05:49:44.590Z,18.30
2019-03-20T05:50:34.236Z,15.30
2019-03-20T05:51:23.976Z,16.20
2019-03-20T05:52:13.679Z,15.95
2019-03-20T05:53:05.208Z,11.55
2019-03-20T05:53:54.586Z,15.32
2019-03-20T05:54:44.210Z,13.30
2019-03-20T05:55:34.141Z,16.93
2019-03-20T05:56:23.814Z,20.68
2019-03-20T05:57:14.058Z,26.23
2019-03-20T05:58:04.095Z,16.30
2019-03-20T05:58:53.384Z,27.37
2019-03-20T05:59:43.779Z,28.42
2019-03-20T06:00:34.116Z,31.70
2019-03-20T06:01:23.877Z,22.65
2019-03-20T06:02:14.558Z,32.20
2019-03-20T06:03:04.322Z,32.93
2019-03-20T06:03:53.663Z,41.30
2019-03-20T06:04:43.885Z,43.48
2019-03-20T06:05:33.655Z,39.83
2019-03-20T06:06:23.325Z,39.00
2019-03-20T06:07:21.071Z,41.02
2019-03-20T06:08:03.244Z,35.68
2019-03-20T06:08:52.747Z,40.50
2019-03-20T06:09:42.697Z,35.10
2019-03-20T06:10:32.486Z,34.33
2019-03-20T06:11:22.709Z,25.52
2019-03-20T06:12:12.159Z,27.75
2019-03-20T06:13:01.687Z,15.70
2019-03-20T06:13:51.471Z,15.98
2019-03-20T06:14:41.125Z,15.50
2019-03-20T06:15:31.234Z,20.52
2019-03-20T06:16:21.106Z,24.07
2019-03-20T06:17:10.725Z,16.30
2019-03-20T06:18:00.447Z,19.00
2019-03-20T06:18:50.133Z,19.17
2019-03-20T06:19:40.128Z,16.23
2019-03-20T06:20:29.719Z,15.05
2019-03-20T06:21:19.531Z,16.45
2019-03-20T06:22:09.783Z,10.13
2019-03-20T06:22:59.627Z,12.33
2019-03-20T06:23:49.502Z,13.70
2019-03-20T06:24:39.119Z,16.62
2019-03-20T06:25:28.718Z,19.82
2019-03-20T06:26:18.883Z,15.25
2019-03-20T06:27:09.754Z,13.48
2019-03-20T06:27:59.364Z,15.68
2019-03-20T06:28:49.040Z,15.18
2019-03-20T06:29:39.066Z,17.45
2019-03-20T06:30:28.581Z,16.80
2019-03-20T06:31:18.896Z,16.60
2019-03-20T06:32:08.221Z,15.43
2019-03-20T06:32:59.880Z,16.15
2019-03-20T06:33:47.761Z,19.62
2019-03-20T06:34:37.632Z,16.32
2019-03-20T06:35:27.222Z,20.15
2019-03-20T06:36:16.926Z,9.50
2019-03-20T06:37:06.937Z,12.28
2019-03-20T06:37:57.215Z,12.95
2019-03-20T06:38:46.863Z,10.80
2019-03-20T06:39:36.580Z,14.33
2019-03-20T06:40:26.960Z,9.60
2019-03-20T06:41:17.048Z,12.15
2019-03-20T06:42:06.967Z,10.35
2019-03-20T06:42:56.889Z,13.40
2019-03-20T06:43:46.444Z,12.75
2019-03-20T06:44:36.816Z,12.37
2019-03-20T06:45:27.127Z,13.53
2019-03-20T06:46:16.596Z,9.30
2019-03-20T06:47:06.393Z,11.10
2019-03-20T06:47:55.652Z,9.70
2019-03-20T06:48:45.467Z,12.70
2019-03-20T06:49:35.431Z,12.43
2019-03-20T06:50:25.154Z,11.30
2019-03-20T06:51:15.335Z,12.28
2019-03-20T06:52:04.900Z,12.68
2019-03-20T06:52:55.089Z,9.70
2019-03-20T06:53:44.999Z,10.55
2019-03-20T06:54:34.828Z,12.30
2019-03-20T06:55:24.726Z,7.87
2019-03-20T06:56:14.602Z,12.40
2019-03-20T06:57:04.560Z,9.18
2019-03-20T06:57:54.262Z,13.78
2019-03-20T06:58:44.164Z,10.18
2019-03-20T06:59:56.016Z,10.08
2019-03-20T07:00:50.432Z,13.93
2019-03-20T07:01:39.755Z,15.93
2019-03-20T07:02:29.309Z,16.17
2019-03-20T07:03:24.572Z,14.75
2019-03-20T07:04:39.612Z,15.18
2019-03-20T07:05:48.733Z,11.00
2019-03-20T07:06:41.052Z,10.90
2019-03-20T07:07:43.661Z,14.55
2019-03-20T07:08:24.424Z,11.80
2019-03-20T07:09:34.567Z,11.43
2019-03-20T07:10:31.700Z,11.97
2019-03-20T07:11:20.860Z,8.48
2019-03-20T07:12:11.037Z,11.38
2019-03-20T07:13:01.286Z,11.45
2019-03-20T07:13:50.934Z,12.45
2019-03-20T07:14:40.849Z,24.50
2019-03-20T07:15:30.283Z,33.30
2019-03-20T07:16:19.903Z,28.45
2019-03-20T07:17:09.788Z,27.77
2019-03-20T07:17:59.370Z,28.30
2019-03-20T07:18:48.821Z,30.52
2019-03-20T07:19:38.958Z,22.52
2019-03-20T07:20:28.588Z,18.45
2019-03-20T07:21:18.881Z,19.60
2019-03-20T07:22:08.102Z,17.82
2019-03-20T07:22:58.272Z,25.10
2019-03-20T07:23:47.959Z,22.95
2019-03-20T07:24:37.544Z,15.00
2019-03-20T07:25:27.463Z,17.57
2019-03-20T07:26:17.177Z,16.62
2019-03-20T07:27:06.481Z,18.25
2019-03-20T07:27:57.072Z,16.65
2019-03-20T07:28:46.732Z,19.40
2019-03-20T07:29:36.776Z,17.37
2019-03-20T07:30:28.236Z,15.98
2019-03-20T07:31:18.408Z,16.42
2019-03-20T07:32:08.906Z,18.37
2019-03-20T07:32:58.458Z,12.37
2019-03-20T07:33:49.631Z,12.45
2019-03-20T07:34:39.887Z,16.65
2019-03-20T07:35:29.203Z,17.50
2019-03-20T07:36:18.873Z,11.88
2019-03-20T07:37:08.911Z,14.65
2019-03-20T07:37:58.805Z,15.53
2019-03-20T07:38:48.912Z,11.97
2019-03-20T07:39:41.513Z,15.32
2019-03-20T07:40:31.287Z,17.00
2019-03-20T07:41:21.171Z,14.45
2019-03-20T07:42:10.651Z,14.25
2019-03-20T07:43:08.805Z,13.93
2019-03-20T07:43:51.300Z,13.75
2019-03-20T07:44:40.842Z,11.85
2019-03-20T07:45:31.711Z,16.10
2019-03-20T07:46:21.361Z,18.37
2019-03-20T07:47:12.254Z,12.93
2019-03-20T07:48:02.110Z,12.95
2019-03-20T07:48:54.927Z,9.70
2019-03-20T07:49:44.553Z,20.25
2019-03-20T07:50:34.066Z,12.18
2019-03-20T07:51:23.993Z,14.28
2019-03-20T07:52:13.688Z,12.78
2019-03-20T07:53:03.854Z,13.93
2019-03-20T07:53:54.065Z,14.70
2019-03-20T07:54:45.131Z,16.02
2019-03-20T07:55:34.779Z,14.20
2019-03-20T07:56:24.118Z,14.90
2019-03-20T07:57:14.251Z,11.75
2019-03-20T07:58:03.981Z,14.30
2019-03-20T07:58:53.659Z,13.75
2019-03-20T07:59:43.254Z,11.35
2019-03-20T08:00:33.275Z,18.60
2019-03-20T08:01:23.126Z,17.32
2019-03-20T08:02:12.848Z,16.37
2019-03-20T08:03:02.883Z,9.85
2019-03-20T08:03:52.693Z,11.95
2019-03-20T08:04:42.446Z,13.35
2019-03-20T08:05:32.379Z,12.82
2019-03-20T08:06:21.996Z,9.53
2019-03-20T08:07:11.727Z,9.38
2019-03-20T08:08:07.325Z,13.65
2019-03-20T08:08:51.264Z,13.22
2019-03-20T08:09:40.606Z,15.78
2019-03-20T08:10:30.377Z,13.72
2019-03-20T08:11:20.210Z,12.53
2019-03-20T08:12:09.864Z,10.55
2019-03-20T08:12:59.573Z,12.07
2019-03-20T08:13:50.056Z,18.67
2019-03-20T08:14:40.126Z,11.40
2019-03-20T08:15:29.902Z,9.00
2019-03-20T08:16:19.490Z,12.33
2019-03-20T08:17:09.488Z,11.97
2019-03-20T08:17:59.682Z,11.43
2019-03-20T08:18:49.659Z,10.70
2019-03-20T08:19:39.642Z,11.70
2019-03-20T08:20:29.388Z,12.03
2019-03-20T08:21:19.148Z,10.48
2019-03-20T08:22:08.605Z,11.50
2019-03-20T08:22:59.139Z,11.65
2019-03-20T08:23:49.805Z,8.20
2019-03-20T08:24:40.348Z,8.65
2019-03-20T08:25:29.562Z,14.00
2019-03-20T08:26:19.067Z,10.58
2019-03-20T08:27:08.622Z,7.15
2019-03-20T08:27:58.553Z,13.53
2019-03-20T08:28:48.169Z,16.97
2019-03-20T08:29:38.109Z,11.55
2019-03-20T08:30:27.392Z,11.38
2019-03-20T08:31:17.490Z,9.35
2019-03-20T08:32:07.292Z,12.05
2019-03-20T08:32:57.443Z,7.60
2019-03-20T08:33:46.649Z,13.78
2019-03-20T08:34:36.239Z,8.58
2019-03-20T08:35:26.238Z,10.30
2019-03-20T08:36:15.505Z,9.60
2019-03-20T08:37:05.594Z,17.80
2019-03-20T08:37:55.615Z,12.25
2019-03-20T08:38:45.422Z,13.05
2019-03-20T08:39:35.018Z,8.80
2019-03-20T08:40:24.815Z,10.82
2019-03-20T08:41:14.494Z,9.63
2019-03-20T08:43:12.464Z,7.33
2019-03-20T08:44:02.111Z,10.35
2019-03-20T08:44:51.610Z,8.90
2019-03-20T08:45:41.529Z,9.93
2019-03-20T08:46:31.478Z,9.65
2019-03-20T08:47:21.307Z,6.58
2019-03-20T08:48:29.241Z,7.17
2019-03-20T08:49:19.234Z,16.60
2019-03-20T08:50:10.969Z,8.35
2019-03-20T08:51:00.616Z,10.20
2019-03-20T08:51:50.213Z,11.63
2019-03-20T08:52:39.965Z,7.58
2019-03-20T08:53:29.558Z,8.68
2019-03-20T08:54:19.269Z,10.15
2019-03-20T08:55:09.370Z,12.43
2019-03-20T08:55:59.687Z,8.75
2019-03-20T08:56:49.136Z,9.55
2019-03-20T08:57:41.991Z,9.75
2019-03-20T08:58:37.643Z,10.28
2019-03-20T08:59:27.494Z,10.55
2019-03-20T09:00:17.283Z,8.83
2019-03-20T09:01:06.886Z,8.45
2019-03-20T09:01:56.930Z,7.53
2019-03-20T09:02:46.967Z,11.12
2019-03-20T09:03:36.307Z,13.25
2019-03-20T09:04:26.987Z,7.65
2019-03-20T09:05:17.133Z,7.72
2019-03-20T09:06:07.543Z,11.03
2019-03-20T09:06:57.469Z,17.90
2019-03-20T09:07:47.958Z,11.22
2019-03-20T09:08:37.703Z,9.30
2019-03-20T09:09:27.802Z,11.45
2019-03-20T09:10:18.110Z,10.45
2019-03-20T09:11:07.850Z,7.67
2019-03-20T09:11:57.846Z,7.37
2019-03-20T09:12:47.612Z,10.15
2019-03-20T09:13:38.112Z,11.43
2019-03-20T09:14:28.027Z,9.25
2019-03-20T09:15:17.842Z,10.68
2019-03-20T09:16:07.179Z,12.65
2019-03-20T09:16:57.021Z,11.68
2019-03-20T09:17:46.633Z,5.83
2019-03-20T09:18:36.209Z,7.65
2019-03-20T09:19:25.812Z,6.87
2019-03-20T09:20:15.884Z,12.50
2019-03-20T09:21:05.811Z,6.37
2019-03-20T09:21:56.192Z,9.08
2019-03-20T09:22:45.712Z,4.28
2019-03-20T09:23:35.556Z,7.17
2019-03-20T09:24:25.794Z,5.55
2019-03-20T09:25:16.381Z,8.60
2019-03-20T09:26:06.238Z,7.55
2019-03-20T09:26:56.248Z,6.22
2019-03-20T09:27:46.847Z,5.87
2019-03-20T09:28:36.818Z,3.08
2019-03-20T09:29:35.646Z,4.62
2019-03-20T09:30:18.134Z,26.35
2019-03-20T09:31:07.760Z,5.42
2019-03-20T09:31:57.801Z,6.08
2019-03-20T09:32:48.140Z,8.00
2019-03-20T09:33:38.098Z,19.10
2019-03-20T09:34:28.119Z,10.13
2019-03-20T09:35:17.386Z,3.80
2019-03-20T09:36:07.501Z,4.72
2019-03-20T09:36:57.145Z,9.38
2019-03-20T09:37:51.801Z,31.45
2019-03-20T09:38:43.458Z,17.07
2019-03-20T09:39:27.474Z,11.05
2019-03-20T09:40:17.393Z,4.95
2019-03-20T09:41:07.107Z,4.60
2019-03-20T09:41:56.851Z,5.15
2019-03-20T09:42:46.572Z,4.92
2019-03-20T09:43:35.963Z,2.25
2019-03-20T09:44:25.584Z,4.15
2019-03-20T09:45:15.942Z,5.03
2019-03-20T09:46:05.463Z,4.50
2019-03-20T09:46:55.184Z,2.25
2019-03-20T09:47:45.660Z,4.50
2019-03-20T09:48:35.371Z,4.37
2019-03-20T09:49:25.188Z,2.35
2019-03-20T09:50:15.859Z,4.15
2019-03-20T09:51:05.459Z,6.25
2019-03-20T09:51:55.900Z,3.87
2019-03-20T09:52:45.822Z,4.62
2019-03-20T09:53:35.501Z,3.10
2019-03-20T09:54:25.328Z,2.30
2019-03-20T09:55:14.669Z,5.90
2019-03-20T09:56:04.656Z,4.55
2019-03-20T09:56:54.437Z,3.45
2019-03-20T09:57:44.047Z,2.52
2019-03-20T09:58:34.286Z,2.60
2019-03-20T09:59:24.217Z,1.98
2019-03-20T10:00:17.891Z,2.27
2019-03-20T10:01:07.669Z,4.28
2019-03-20T10:01:57.813Z,4.05
2019-03-20T10:02:48.191Z,3.77
2019-03-20T10:03:37.614Z,4.87
2019-03-20T10:04:27.499Z,5.58
2019-03-20T10:05:17.521Z,3.77
2019-03-20T10:06:07.087Z,8.40
2019-03-20T10:06:56.928Z,4.55
2019-03-20T10:07:47.918Z,5.15
2019-03-20T10:08:37.748Z,6.87
2019-03-20T10:09:27.276Z,11.40
2019-03-20T10:10:19.286Z,6.58
2019-03-20T10:11:08.853Z,8.28
2019-03-20T10:11:58.655Z,5.37
2019-03-20T10:12:47.995Z,6.22
2019-03-20T10:13:38.237Z,5.17
2019-03-20T10:14:27.640Z,7.72
2019-03-20T10:15:17.568Z,7.92
2019-03-20T10:16:07.515Z,12.33
2019-03-20T10:16:58.015Z,3.92
2019-03-20T10:17:47.397Z,7.22
2019-03-20T10:18:37.105Z,4.42
2019-03-20T10:19:27.233Z,4.00
2019-03-20T10:20:18.138Z,7.22
2019-03-20T10:21:07.791Z,4.62
2019-03-20T10:21:57.065Z,5.03
2019-03-20T10:22:47.277Z,7.10
2019-03-20T10:23:37.088Z,3.75
2019-03-20T10:24:26.696Z,6.00
2019-03-20T10:25:16.233Z,2.80
2019-03-20T10:26:06.246Z,2.67
2019-03-20T10:26:56.119Z,2.67
2019-03-20T10:27:45.688Z,2.15
2019-03-20T10:28:35.697Z,4.15
2019-03-20T10:29:25.450Z,2.30
2019-03-20T10:30:19.022Z,4.10
2019-03-20T10:31:10.433Z,3.92
2019-03-20T10:32:00.181Z,3.27
2019-03-20T10:32:49.770Z,2.40
2019-03-20T10:33:39.660Z,6.58
2019-03-20T10:34:39.138Z,3.92
2019-03-20T10:35:19.490Z,5.25
2019-03-20T10:36:09.644Z,4.55
2019-03-20T10:36:59.959Z,6.60
2019-03-20T10:37:49.924Z,5.65
2019-03-20T10:38:39.637Z,5.55
2019-03-20T10:39:29.563Z,3.62
2019-03-20T10:40:19.725Z,2.62
2019-03-20T10:41:09.181Z,5.60
2019-03-20T10:41:59.245Z,2.87
2019-03-20T10:42:48.899Z,4.97
2019-03-20T10:43:38.826Z,14.58
2019-03-20T10:44:28.931Z,6.78
2019-03-20T10:45:19.527Z,3.02
2019-03-20T10:46:09.939Z,3.05
2019-03-20T10:46:59.800Z,3.25
2019-03-20T10:47:52.728Z,6.33
2019-03-20T10:48:40.174Z,3.00
2019-03-20T10:49:29.964Z,5.28
2019-03-20T10:50:21.407Z,6.92
2019-03-20T10:51:10.251Z,10.75
2019-03-20T10:52:00.396Z,7.78
2019-03-20T10:52:49.923Z,6.47